Time;durP1;ratioP1;P1;durP2;ratioP2;P2;SDS_P1;SDS_P2;PMS_P1;PMS_P2;Temp;Humidity;BMP_temperature;BMP_pressure;BME280_temperature;BME280_humidity;BME280_pressure;Samples;Min_cycle;Max_cycle;Signal;HPM_P1;HPM_P2
2022/07/07 00:00:18;;;;;;;0.40;0.20;;;;;;;17.60;72.79;100797.69;4994864;28;20821;-57
2022/07/07 00:02:45;;;;;;;0.40;0.20;;;;;;;17.64;72.76;100794.75;4993962;28;20457;-57
2022/07/07 00:05:11;;;;;;;0.40;0.20;;;;;;;17.61;72.36;100796.72;4993724;28;20920;-56
2022/07/07 00:07:38;;;;;;;0.40;0.20;;;;;;;17.69;71.99;100795.44;4994682;28;20446;-57
2022/07/07 00:10:05;;;;;;;0.40;0.20;;;;;;;17.74;71.43;100796.06;4994886;28;20453;-57
2022/07/07 00:12:31;;;;;;;0.40;0.20;;;;;;;17.63;73.40;100793.00;4994823;28;20446;-57
2022/07/07 00:14:58;;;;;;;0.40;0.20;;;;;;;17.80;72.21;100781.44;4994646;28;20449;-57
2022/07/07 00:17:24;;;;;;;0.40;0.20;;;;;;;17.86;71.87;100791.03;4994640;28;20836;-57
2022/07/07 00:19:51;;;;;;;0.40;0.20;;;;;;;17.70;72.78;100793.63;4994565;28;20834;-56
2022/07/07 00:22:17;;;;;;;0.40;0.20;;;;;;;17.76;73.24;100782.56;4994456;28;20461;-57
2022/07/07 00:24:47;;;;;;;0.37;0.20;;;;;;;17.66;73.66;100782.09;4994164;28;20492;-57
2022/07/07 00:27:13;;;;;;;0.40;0.20;;;;;;;17.66;75.27;100776.72;4994538;28;20480;-57
2022/07/07 00:29:43;;;;;;;0.30;0.20;;;;;;;17.10;77.31;100785.75;4994265;28;20453;-57
2022/07/07 00:32:10;;;;;;;0.40;0.20;;;;;;;17.38;76.61;100784.41;4994391;28;20457;-57
2022/07/07 00:34:37;;;;;;;0.40;0.20;;;;;;;17.38;76.02;100779.03;4984288;28;20827;-57
2022/07/07 00:37:03;;;;;;;0.40;0.20;;;;;;;17.30;76.37;100787.50;4980572;28;20485;-57
2022/07/07 00:39:30;;;;;;;0.40;0.20;;;;;;;17.20;76.21;100780.81;4974755;28;20936;-57
2022/07/07 00:41:56;;;;;;;0.40;0.20;;;;;;;17.23;76.19;100783.34;4974970;28;20462;-57
2022/07/07 00:44:23;;;;;;;0.40;0.20;;;;;;;17.31;75.58;100774.91;4994067;28;20453;-57
2022/07/07 00:46:51;;;;;;;0.40;0.20;;;;;;;17.25;75.20;100775.19;4993994;28;20501;-57
2022/07/07 00:49:19;;;;;;;0.40;0.20;;;;;;;17.00;77.34;100767.47;4987205;28;20450;-56
2022/07/07 00:51:46;;;;;;;0.40;0.20;;;;;;;16.83;78.50;100757.50;4988317;28;20472;-57
2022/07/07 00:54:12;;;;;;;0.40;0.20;;;;;;;16.82;79.42;100753.94;4994114;28;20464;-57
2022/07/07 00:56:39;;;;;;;0.40;0.20;;;;;;;16.36;81.56;100757.84;4993778;28;20476;-57
2022/07/07 00:59:07;;;;;;;0.40;0.20;;;;;;;16.54;81.68;100750.75;4994061;28;20456;-56
2022/07/07 01:01:38;;;;;;;0.40;0.20;;;;;;;16.66;79.50;100750.19;4993609;28;20829;-57
2022/07/07 01:04:11;;;;;;;0.40;0.20;;;;;;;16.62;79.36;100751.28;4994051;28;20507;-57
2022/07/07 01:06:41;;;;;;;0.40;0.20;;;;;;;16.55;79.39;100741.78;4993586;28;20712;-57
2022/07/07 01:09:08;;;;;;;0.40;0.20;;;;;;;16.50;80.36;100739.31;4993951;28;20450;-57
2022/07/07 01:11:49;;;;;;;0.40;0.20;;;;;;;16.36;81.23;100736.38;4993535;28;20487;-57
2022/07/07 01:14:16;;;;;;;0.40;0.20;;;;;;;16.54;80.16;100730.16;4993600;28;20949;-57
2022/07/07 01:16:43;;;;;;;0.40;0.20;;;;;;;16.56;79.91;100728.28;4993784;28;20474;-57
2022/07/07 01:19:10;;;;;;;0.40;0.20;;;;;;;16.81;78.46;100733.41;4993726;28;20453;-57
2022/07/07 01:21:51;;;;;;;0.40;0.20;;;;;;;16.86;78.17;100727.84;4993507;28;20528;-57
2022/07/07 01:24:18;;;;;;;0.40;0.20;;;;;;;16.85;78.03;100726.06;4993466;28;20453;-57
2022/07/07 01:26:45;;;;;;;0.40;0.20;;;;;;;16.95;77.23;100724.69;4993319;28;20497;-57
2022/07/07 01:29:11;;;;;;;0.40;0.20;;;;;;;17.12;76.84;100730.13;4991170;28;20458;-58
2022/07/07 01:31:38;;;;;;;0.40;0.20;;;;;;;17.46;75.29;100726.66;4979063;28;20451;-57
2022/07/07 01:34:04;;;;;;;0.40;0.20;;;;;;;17.31;75.27;100721.19;4987101;28;20453;-57
2022/07/07 01:36:31;;;;;;;0.40;0.20;;;;;;;17.34;75.67;100723.72;5003705;23;20844;-50
2022/07/07 01:38:57;;;;;;;0.40;0.20;;;;;;;17.13;76.96;100718.47;5011853;28;20455;-49
2022/07/07 01:41:24;;;;;;;0.40;0.20;;;;;;;17.31;76.24;100719.34;5012602;28;20468;-50
2022/07/07 01:43:50;;;;;;;0.40;0.20;;;;;;;17.14;77.68;100713.94;4999571;28;20943;-50
2022/07/07 01:46:16;;;;;;;0.40;0.20;;;;;;;17.03;77.66;100713.59;5012574;28;20496;-49
2022/07/07 01:48:43;;;;;;;0.40;0.20;;;;;;;16.99;77.79;100709.28;5010685;28;20449;-49
2022/07/07 01:51:10;;;;;;;0.40;0.20;;;;;;;17.20;77.23;100705.56;5001904;28;20456;-49
2022/07/07 01:53:36;;;;;;;0.40;0.20;;;;;;;17.11;77.60;100701.50;5012431;28;20474;-49
2022/07/07 01:56:04;;;;;;;0.57;0.57;;;;;;;17.18;77.88;100692.22;5003210;28;20480;-50
2022/07/07 01:58:31;;;;;;;0.40;0.20;;;;;;;17.09;78.44;100692.66;5009170;28;20445;-49
2022/07/07 02:00:57;;;;;;;0.40;0.20;;;;;;;17.02;79.38;100691.25;5012487;28;20967;-49
2022/07/07 02:03:25;;;;;;;0.40;0.20;;;;;;;17.04;79.26;100683.97;4999201;28;20457;-49
2022/07/07 02:05:52;;;;;;;0.40;0.20;;;;;;;17.22;78.37;100690.25;5012394;28;20496;-50
2022/07/07 02:08:19;;;;;;;0.40;0.20;;;;;;;17.31;77.21;100686.25;4999086;28;20448;-51
2022/07/07 02:13:31;;;;;;;0.40;0.20;;;;;;;17.05;79.43;100682.16;5006597;28;20450;-49
2022/07/07 02:15:57;;;;;;;0.40;0.20;;;;;;;16.91;79.84;100680.16;5005571;28;20465;-50
2022/07/07 02:18:24;;;;;;;0.40;0.20;;;;;;;16.91;80.63;100674.78;5012665;28;20456;-49
2022/07/07 02:20:50;;;;;;;0.40;0.20;;;;;;;16.92;79.01;100672.97;4999103;28;20797;-50
2022/07/07 02:23:17;;;;;;;0.40;0.20;;;;;;;16.97;78.50;100674.47;4999270;28;20972;-50
2022/07/07 02:25:43;;;;;;;0.40;0.20;;;;;;;16.96;78.27;100680.78;4999800;28;20496;-51
2022/07/07 02:28:10;;;;;;;0.40;0.20;;;;;;;16.72;79.83;100672.13;5016457;28;20448;-50
2022/07/07 02:30:36;;;;;;;0.40;0.20;;;;;;;16.75;80.44;100668.41;5016466;28;20448;-49
2022/07/07 02:33:03;;;;;;;0.40;0.20;;;;;;;16.67;81.06;100668.75;5016226;28;20455;-50
2022/07/07 02:35:29;;;;;;;0.40;0.20;;;;;;;16.81;81.18;100666.28;5016048;28;20933;-49
2022/07/07 02:37:56;;;;;;;0.40;0.20;;;;;;;16.76;81.37;100662.09;5016349;28;20479;-50
2022/07/07 02:40:22;;;;;;;0.40;0.20;;;;;;;16.79;81.49;100660.13;5016247;28;20453;-49
2022/07/07 02:42:48;;;;;;;0.40;0.20;;;;;;;16.92;80.66;100671.13;5003182;28;20463;-49
2022/07/07 02:45:15;;;;;;;0.40;0.20;;;;;;;17.04;79.09;100680.41;5015674;28;20460;-50
2022/07/07 02:47:41;;;;;;;0.40;0.20;;;;;;;16.84;80.43;100671.50;5011078;28;20482;-50
2022/07/07 02:50:09;;;;;;;0.40;0.20;;;;;;;17.01;79.09;100672.53;5002509;28;20476;-51
2022/07/07 02:52:35;;;;;;;0.40;0.20;;;;;;;17.02;78.39;100676.94;5015955;28;20453;-49
2022/07/07 02:55:02;;;;;;;0.40;0.20;;;;;;;17.09;78.51;100675.69;5015844;28;20449;-50
2022/07/07 02:57:28;;;;;;;0.40;0.20;;;;;;;17.15;78.00;100684.31;5008934;28;20469;-50
2022/07/07 02:59:55;;;;;;;0.30;0.20;;;;;;;17.38;76.54;100684.97;5009806;28;20455;-50
2022/07/07 03:02:21;;;;;;;0.40;0.20;;;;;;;17.46;76.37;100680.09;5015735;28;20452;-49
2022/07/07 03:04:48;;;;;;;0.40;0.20;;;;;;;17.44;75.93;100680.16;5011925;28;20448;-50
2022/07/07 03:07:14;;;;;;;0.40;0.20;;;;;;;17.40;75.87;100673.19;5008471;28;20515;-49
2022/07/07 03:09:41;;;;;;;0.40;0.20;;;;;;;17.55;74.45;100670.69;5009683;28;20455;-50
2022/07/07 03:12:07;;;;;;;0.40;0.20;;;;;;;17.47;76.29;100663.00;5015427;28;20869;-50
2022/07/07 03:14:34;;;;;;;0.40;0.20;;;;;;;17.30;79.03;100666.56;5002296;28;20460;-49
2022/07/07 03:17:00;;;;;;;0.40;0.20;;;;;;;17.23;79.24;100670.50;5015316;28;20464;-51
2022/07/07 03:19:27;;;;;;;0.40;0.20;;;;;;;17.25;78.65;100668.59;5014744;28;21009;-50
2022/07/07 03:21:53;;;;;;;0.40;0.20;;;;;;;17.29;78.20;100655.91;5002674;28;20973;-50
2022/07/07 03:24:20;;;;;;;0.40;0.20;;;;;;;17.35;78.50;100653.75;5015353;28;20460;-50
2022/07/07 03:26:46;;;;;;;0.40;0.20;;;;;;;17.45;78.56;100654.16;5007720;28;20500;-50
2022/07/07 03:29:13;;;;;;;0.40;0.20;;;;;;;17.44;78.14;100650.59;5009850;28;20487;-49
2022/07/07 03:31:39;;;;;;;0.40;0.20;;;;;;;17.57;77.93;100661.59;5015142;28;20449;-49
2022/07/07 03:34:06;;;;;;;0.40;0.20;;;;;;;17.44;77.27;100649.75;5015280;28;20463;-49
2022/07/07 03:36:32;;;;;;;0.40;0.20;;;;;;;17.87;76.34;100653.78;5007470;28;20473;-50
2022/07/07 03:38:59;;;;;;;0.40;0.20;;;;;;;17.63;77.02;100653.22;5009763;28;20448;-50
2022/07/07 03:41:25;;;;;;;0.40;0.20;;;;;;;17.78;75.71;100654.25;5015069;28;20548;-49
2022/07/07 03:43:52;;;;;;;0.40;0.20;;;;;;;17.72;76.61;100659.97;5001509;28;20449;-50
2022/07/07 03:46:18;;;;;;;0.40;0.20;;;;;;;17.67;76.37;100657.47;5014543;28;20575;-50
2022/07/07 03:48:45;;;;;;;0.40;0.20;;;;;;;17.55;77.94;100646.50;5013081;28;20847;-50
2022/07/07 03:51:12;;;;;;;0.40;0.20;;;;;;;17.67;76.79;100659.28;5003684;28;20453;-49
2022/07/07 03:53:38;;;;;;;0.40;0.20;;;;;;;17.81;76.22;100651.41;5012975;28;20890;-50
2022/07/07 03:56:05;;;;;;;0.40;0.20;;;;;;;17.83;76.50;100645.97;5003354;28;20997;-50
2022/07/07 03:58:31;;;;;;;0.40;0.20;;;;;;;17.85;74.54;100644.06;5001281;28;20449;-50
2022/07/07 04:00:59;;;;;;;0.67;0.67;;;;;;;17.84;74.16;100651.25;5014713;28;20449;-49
2022/07/07 04:03:26;;;;;;;0.40;0.20;;;;;;;18.03;74.74;100646.63;5013359;28;20457;-49
2022/07/07 04:05:53;;;;;;;0.40;0.20;;;;;;;17.91;74.39;100646.41;5014173;28;20496;-49
2022/07/07 04:08:20;;;;;;;0.40;0.20;;;;;;;17.99;74.39;100641.50;5001342;28;20549;-50
2022/07/07 04:10:46;;;;;;;0.40;0.30;;;;;;;17.99;73.64;100642.38;5014489;28;20536;-49
2022/07/07 04:13:13;;;;;;;0.40;0.20;;;;;;;17.93;75.55;100648.06;5012144;28;20897;-50
2022/07/07 04:15:39;;;;;;;0.40;0.20;;;;;;;18.02;74.71;100644.91;5003691;28;20535;-50
2022/07/07 04:18:06;;;;;;;0.40;0.20;;;;;;;17.87;73.88;100634.97;5014080;28;20507;-49
2022/07/07 04:20:33;;;;;;;0.40;0.20;;;;;;;18.09;72.52;100626.59;5005701;28;20453;-50
2022/07/07 04:22:59;;;;;;;0.40;0.20;;;;;;;18.03;71.54;100619.72;5009868;28;20962;-50
2022/07/07 04:25:31;;;;;;;0.40;0.20;;;;;;;18.06;71.43;100619.56;5013959;28;20552;-50
2022/07/07 04:27:58;;;;;;;0.40;0.20;;;;;;;17.97;73.11;100619.19;5000864;28;20480;-51
2022/07/07 04:30:24;;;;;;;0.40;0.20;;;;;;;18.16;72.43;100613.69;5014182;28;20452;-49
2022/07/07 04:32:51;;;;;;;0.40;0.20;;;;;;;18.13;73.44;100619.25;5010224;28;20544;-50
2022/07/07 04:35:17;;;;;;;0.40;0.20;;;;;;;18.22;72.03;100608.81;5008764;28;20575;-51
2022/07/07 04:37:44;;;;;;;0.40;0.20;;;;;;;17.99;71.79;100612.78;5000596;28;20973;-49
2022/07/07 04:40:11;;;;;;;0.40;0.20;;;;;;;18.35;71.20;100619.78;5014053;28;20456;-49
2022/07/07 04:42:38;;;;;;;0.40;0.20;;;;;;;18.31;71.51;100616.41;5008739;28;20826;-49
2022/07/07 04:45:05;;;;;;;0.40;0.20;;;;;;;18.48;70.99;100612.75;5005997;28;20453;-50
2022/07/07 04:47:31;;;;;;;0.40;0.20;;;;;;;18.44;70.88;100618.41;5013337;28;20511;-49
2022/07/07 04:49:57;;;;;;;0.40;0.20;;;;;;;18.39;69.79;100618.69;5001235;28;20552;-49
2022/07/07 04:52:24;;;;;;;0.40;0.20;;;;;;;18.41;71.20;100614.06;5012795;28;20480;-49
2022/07/07 04:54:50;;;;;;;0.40;0.20;;;;;;;18.71;70.77;100613.31;5013471;28;20492;-49
2022/07/07 04:57:23;;;;;;;0.40;0.20;;;;;;;18.45;71.54;100614.75;5000385;28;20547;-49
2022/07/07 04:59:49;;;;;;;0.40;0.20;;;;;;;18.35;73.06;100617.94;5013433;28;20954;-50
2022/07/07 05:02:16;;;;;;;0.40;0.20;;;;;;;18.57;72.04;100622.16;5006711;28;20449;-50
2022/07/07 05:04:42;;;;;;;0.40;0.20;;;;;;;18.78;70.85;100623.69;5006879;28;20485;-49
2022/07/07 05:07:09;;;;;;;0.40;0.20;;;;;;;18.77;70.49;100615.66;5006039;28;20497;-49
2022/07/07 05:09:35;;;;;;;0.40;0.20;;;;;;;18.81;70.68;100620.78;5006878;28;20455;-50
2022/07/07 05:12:03;;;;;;;0.40;0.20;;;;;;;18.69;71.06;100613.41;5013302;28;20444;-50
2022/07/07 05:14:29;;;;;;;0.40;0.20;;;;;;;18.75;70.48;100614.88;4999994;28;20529;-50
2022/07/07 05:16:56;;;;;;;0.40;0.20;;;;;;;18.75;70.44;100615.75;5013125;28;20483;-50
2022/07/07 05:19:23;;;;;;;0.40;0.20;;;;;;;18.62;70.88;100601.19;5012430;28;20523;-49
2022/07/07 05:21:49;;;;;;;0.40;0.20;;;;;;;18.84;70.98;100603.59;5000721;28;20452;-50
2022/07/07 05:24:16;;;;;;;0.40;0.20;;;;;;;18.82;71.51;100595.59;5012896;28;20836;-50
2022/07/07 05:26:42;;;;;;;0.40;0.20;;;;;;;18.83;70.80;100604.53;5005942;28;20498;-49
2022/07/07 05:29:09;;;;;;;0.40;0.30;;;;;;;18.87;70.67;100596.19;5007417;28;20835;-49
2022/07/07 05:31:35;;;;;;;0.40;0.20;;;;;;;19.26;69.85;100597.50;5013033;28;20452;-49
2022/07/07 05:34:02;;;;;;;0.40;0.20;;;;;;;19.13;70.59;100591.97;5002987;28;20476;-49
2022/07/07 05:36:29;;;;;;;0.40;0.20;;;;;;;19.24;70.10;100596.72;5004645;28;20836;-50
2022/07/07 05:38:56;;;;;;;0.40;0.20;;;;;;;19.39;69.82;100598.50;5006606;28;20452;-49
2022/07/07 05:41:22;;;;;;;0.40;0.20;;;;;;;19.34;70.27;100602.44;5012261;28;20463;-49
2022/07/07 05:43:49;;;;;;;0.40;0.20;;;;;;;19.29;70.62;100601.84;4999722;28;20457;-49
2022/07/07 05:46:15;;;;;;;0.40;0.20;;;;;;;19.42;70.42;100600.13;5012171;28;20885;-49
2022/07/07 05:48:42;;;;;;;0.40;0.20;;;;;;;19.24;70.52;100594.91;5010174;28;20444;-49
2022/07/07 05:51:08;;;;;;;0.40;0.20;;;;;;;19.26;70.84;100597.50;5000854;28;20540;-50
2022/07/07 05:53:35;;;;;;;0.40;0.20;;;;;;;19.23;71.22;100587.78;5011766;28;20451;-50
2022/07/07 05:56:02;;;;;;;0.40;0.20;;;;;;;19.23;71.79;100590.47;5003112;28;20480;-51
2022/07/07 05:58:28;;;;;;;0.40;0.20;;;;;;;19.33;72.03;100598.88;5007646;28;20454;-50
2022/07/07 06:00:55;;;;;;;0.40;0.20;;;;;;;19.41;72.07;100590.31;5010818;28;20454;-50
2022/07/07 06:03:22;;;;;;;0.40;0.20;;;;;;;19.40;72.36;100592.16;4998530;28;20460;-49
2022/07/07 06:05:49;;;;;;;0.40;0.20;;;;;;;19.34;73.01;100595.22;5011395;28;20990;-50
2022/07/07 06:08:17;;;;;;;0.40;0.20;;;;;;;19.70;70.06;100600.22;4998786;28;20503;-50
2022/07/07 06:10:45;;;;;;;0.40;0.20;;;;;;;19.58;71.10;100608.19;5011920;28;20459;-49
2022/07/07 06:13:12;;;;;;;0.40;0.20;;;;;;;19.37;71.47;100597.72;5007191;28;20457;-50
2022/07/07 06:15:40;;;;;;;0.40;0.20;;;;;;;19.21;71.85;100592.41;5001249;28;20483;-50
2022/07/07 06:18:07;;;;;;;0.40;0.20;;;;;;;19.36;71.98;100600.53;5011476;28;20449;-49
2022/07/07 06:20:35;;;;;;;0.40;0.20;;;;;;;19.44;71.53;100598.22;5000848;28;20465;-49
2022/07/07 06:23:02;;;;;;;0.40;0.20;;;;;;;19.52;71.40;100593.25;4996496;28;20451;-50
2022/07/07 06:25:29;;;;;;;0.40;0.20;;;;;;;19.57;71.24;100601.94;5035327;28;20538;-50
2022/07/07 06:27:55;;;;;;;0.40;0.20;;;;;;;19.60;71.54;100611.66;4998374;28;20493;-49
2022/07/07 06:30:22;;;;;;;0.40;0.20;;;;;;;19.74;70.83;100598.22;5011547;28;20449;-50
2022/07/07 06:32:49;;;;;;;0.40;0.20;;;;;;;19.70;71.10;100602.94;5006484;28;20958;-50
2022/07/07 06:35:15;;;;;;;0.40;0.20;;;;;;;19.77;71.27;100612.41;5005872;28;20544;-50
2022/07/07 06:37:42;;;;;;;0.40;0.20;;;;;;;19.78;71.13;100613.25;4962998;28;1078091;-50
2022/07/07 06:40:09;;;;;;;0.40;0.20;;;;;;;19.65;72.51;100602.34;5013339;28;20220;-50
2022/07/07 06:42:36;;;;;;;0.40;0.20;;;;;;;19.74;72.79;100615.28;5007092;28;20450;-49
2022/07/07 06:45:03;;;;;;;0.40;0.20;;;;;;;19.91;71.88;100610.66;5004247;28;20963;-50
2022/07/07 06:47:30;;;;;;;0.40;0.20;;;;;;;20.15;72.01;100610.94;5011779;28;20587;-50
2022/07/07 06:49:56;;;;;;;0.40;0.20;;;;;;;20.19;72.59;100610.69;5000470;28;20463;-50
2022/07/07 06:52:23;;;;;;;0.40;0.20;;;;;;;20.21;72.89;100613.28;5011216;28;20540;-50
2022/07/07 06:54:49;;;;;;;0.40;0.20;;;;;;;20.26;73.17;100614.69;5012218;28;20459;-49
2022/07/07 06:57:16;;;;;;;0.40;0.20;;;;;;;20.39;72.22;100610.25;4998889;28;20475;-50
2022/07/07 06:59:43;;;;;;;0.40;0.20;;;;;;;20.22;73.45;100618.56;5012167;28;21040;-50
2022/07/07 07:02:09;;;;;;;0.40;0.20;;;;;;;20.27;73.27;100623.66;5005606;28;20947;-50
2022/07/07 07:04:36;;;;;;;0.40;0.20;;;;;;;20.52;72.78;100625.72;5005360;28;20471;-50
2022/07/07 07:07:04;;;;;;;0.40;0.30;;;;;;;20.47;72.90;100627.84;5005875;28;20544;-49
2022/07/07 07:09:31;;;;;;;0.40;0.20;;;;;;;20.50;72.57;100636.63;5004436;28;20456;-50
2022/07/07 07:11:57;;;;;;;0.40;0.20;;;;;;;20.36;73.38;100634.75;5013045;28;20456;-49
2022/07/07 07:14:25;;;;;;;0.40;0.20;;;;;;;20.36;73.22;100625.78;5015436;28;20477;-49
2022/07/07 07:16:51;;;;;;;0.40;0.20;;;;;;;20.51;72.18;100623.97;5008144;28;20477;-50
2022/07/07 07:19:18;;;;;;;0.40;0.20;;;;;;;20.56;74.00;100625.44;5009638;28;20494;-49
2022/07/07 07:21:44;;;;;;;0.40;0.20;;;;;;;20.53;75.05;100624.75;5016736;28;20455;-50
2022/07/07 07:24:12;;;;;;;0.40;0.20;;;;;;;20.60;75.37;100608.06;5003124;28;20568;-50
2022/07/07 07:26:39;;;;;;;0.40;0.20;;;;;;;20.71;76.05;100607.34;5015089;28;20502;-50
2022/07/07 07:29:12;;;;;;;0.40;0.20;;;;;;;20.73;75.77;100605.41;5010702;28;20540;-50
2022/07/07 07:31:39;;;;;;;0.40;0.20;;;;;;;20.99;75.19;100593.75;5012426;28;20535;-49
2022/07/07 07:34:05;;;;;;;0.40;0.20;;;;;;;20.73;75.29;100586.50;5004590;28;20536;-49
2022/07/07 07:36:32;;;;;;;0.40;0.30;;;;;;;21.09;74.54;100598.50;5006715;28;20497;-52
2022/07/07 07:38:58;;;;;;;0.40;0.20;;;;;;;21.21;74.51;100592.28;5011219;28;20809;-52
2022/07/07 07:41:25;;;;;;;0.40;0.20;;;;;;;21.49;73.03;100588.59;5015216;28;21141;-52
2022/07/07 07:43:51;;;;;;;0.40;0.20;;;;;;;21.36;73.92;100588.56;5001537;28;20453;-51
2022/07/07 07:46:19;;;;;;;0.40;0.20;;;;;;;21.76;73.12;100589.38;5014921;28;20480;-52
2022/07/07 07:48:46;;;;;;;0.40;0.20;;;;;;;21.36;72.77;100599.38;5013194;28;20515;-52
2022/07/07 07:51:12;;;;;;;0.40;0.20;;;;;;;21.26;74.11;100598.31;5003530;28;20949;-52
2022/07/07 07:53:39;;;;;;;0.40;0.20;;;;;;;21.23;74.01;100603.84;5014779;28;20448;-52
2022/07/07 07:56:05;;;;;;;0.50;0.50;;;;;;;21.12;74.75;100607.31;5006339;28;20480;-52
2022/07/07 07:58:32;;;;;;;0.40;0.20;;;;;;;21.18;75.05;100608.72;5010350;28;20848;-52
2022/07/07 08:00:58;;;;;;;0.40;0.20;;;;;;;21.52;74.31;100602.78;5014923;28;20449;-52
2022/07/07 08:03:25;;;;;;;0.40;0.20;;;;;;;21.20;75.36;100606.78;5001225;28;20459;-52
2022/07/07 08:05:53;;;;;;;0.40;0.20;;;;;;;21.27;75.27;100619.81;5014440;28;20996;-52
2022/07/07 08:08:20;;;;;;;0.40;0.20;;;;;;;21.15;76.77;100617.03;5001055;28;20496;-52
2022/07/07 08:10:46;;;;;;;0.40;0.20;;;;;;;21.52;75.13;100610.03;5014412;28;21000;-53
2022/07/07 08:13:13;;;;;;;0.40;0.20;;;;;;;21.06;77.56;100604.13;5010620;28;20574;-52
2022/07/07 08:15:39;;;;;;;0.40;0.20;;;;;;;21.10;77.30;100602.94;5004325;28;20457;-52
2022/07/07 08:18:06;;;;;;;0.40;0.20;;;;;;;21.24;77.13;100600.19;5014141;28;20826;-52
2022/07/07 08:20:33;;;;;;;0.40;0.20;;;;;;;21.62;76.05;100589.47;5004719;28;20458;-52
2022/07/07 08:22:59;;;;;;;0.40;0.20;;;;;;;21.51;75.78;100582.09;5010420;28;20453;-53
2022/07/07 08:25:26;;;;;;;0.40;0.20;;;;;;;21.96;74.43;100577.16;5013510;28;20457;-52
2022/07/07 08:27:52;;;;;;;0.40;0.20;;;;;;;22.18;73.86;100565.66;5000902;28;20488;-52
2022/07/07 08:30:18;;;;;;;0.40;0.20;;;;;;;22.29;72.86;100571.16;5014096;28;20452;-52
2022/07/07 08:32:45;;;;;;;0.40;0.20;;;;;;;22.51;71.83;100581.31;5010604;28;20459;-52
2022/07/07 08:35:14;;;;;;;0.40;0.20;;;;;;;22.37;71.52;100568.78;5008253;28;20456;-52
2022/07/07 08:37:42;;;;;;;0.40;0.20;;;;;;;22.76;70.53;100572.22;5000584;28;20535;-52
2022/07/07 08:40:09;;;;;;;0.40;0.30;;;;;;;22.53;70.04;100584.75;5014017;28;20451;-52
2022/07/07 08:42:39;;;;;;;0.40;0.20;;;;;;;22.34;70.88;100579.84;5008925;28;20541;-52
2022/07/07 08:45:06;;;;;;;0.40;0.20;;;;;;;22.73;69.74;100586.84;5006252;28;20448;-52
2022/07/07 08:47:33;;;;;;;0.40;0.20;;;;;;;22.76;69.68;100572.22;5013329;28;20495;-52
2022/07/07 08:50:00;;;;;;;0.40;0.20;;;;;;;22.68;69.44;100580.91;5001743;28;20449;-52
2022/07/07 08:52:27;;;;;;;0.40;0.20;;;;;;;22.43;68.93;100573.72;5012973;28;20448;-52
2022/07/07 08:54:55;;;;;;;0.40;0.20;;;;;;;22.38;69.97;100580.47;5013681;28;20452;-52
2022/07/07 08:57:23;;;;;;;0.40;0.20;;;;;;;22.17;70.14;100575.63;4999946;28;20994;-52
2022/07/07 08:59:49;;;;;;;0.40;0.20;;;;;;;21.95;71.08;100580.84;5013820;28;20452;-52
2022/07/07 09:02:16;;;;;;;0.40;0.20;;;;;;;22.09;70.81;100583.44;5007598;28;20445;-52
2022/07/07 09:04:43;;;;;;;0.40;0.20;;;;;;;22.03;70.66;100583.84;5006965;28;20460;-52
2022/07/07 09:07:09;;;;;;;0.40;0.20;;;;;;;21.79;71.17;100591.00;5007581;28;20501;-52
2022/07/07 09:09:35;;;;;;;0.40;0.20;;;;;;;22.22;69.91;100591.56;5006880;28;20452;-52
2022/07/07 09:12:04;;;;;;;0.40;0.20;;;;;;;22.12;69.48;100594.06;5013542;28;20455;-52
2022/07/07 09:14:42;;;;;;;0.40;0.20;;;;;;;22.08;69.80;100592.56;5000252;28;20449;-52
2022/07/07 09:17:25;;;;;;;0.40;0.20;;;;;;;22.18;69.58;100582.75;5013516;28;20464;-52
2022/07/07 09:20:07;;;;;;;0.40;0.20;;;;;;;21.84;71.03;100592.41;5008618;28;20930;-51
2022/07/07 09:22:45;;;;;;;0.40;0.20;;;;;;;21.98;70.72;100596.00;5006497;28;20464;-52
2022/07/07 09:25:13;;;;;;;0.40;0.40;;;;;;;22.05;70.35;100600.88;5001303;28;20889;-53
2022/07/07 09:27:53;;;;;;;0.40;0.20;;;;;;;22.13;70.27;100598.50;4998848;28;20533;-52
2022/07/07 09:30:45;;;;;;;0.40;0.20;;;;;;;22.45;68.85;100598.84;5013582;28;20453;-52
2022/07/07 09:33:15;;;;;;;0.40;0.20;;;;;;;22.56;69.05;100608.91;5006702;28;20449;-52
2022/07/07 09:38:30;;;;;;;0.40;0.20;;;;;;;22.29;69.36;100619.91;5003015;28;20452;-53
2022/07/07 09:41:12;;;;;;;0.40;0.20;;;;;;;22.57;68.26;100604.38;5013409;28;20444;-52
2022/07/07 09:43:48;;;;;;;0.40;0.20;;;;;;;22.60;69.55;100606.84;4999901;28;20536;-52
2022/07/07 09:46:33;;;;;;;0.40;0.20;;;;;;;22.89;69.87;100611.03;5012987;28;21022;-52
2022/07/07 09:49:02;;;;;;;0.40;0.20;;;;;;;22.89;68.64;100615.56;5009170;28;20587;-53
2022/07/07 09:51:30;;;;;;;0.40;0.20;;;;;;;23.08;68.94;100618.63;5004767;28;20459;-52
2022/07/07 09:54:12;;;;;;;0.40;0.30;;;;;;;23.22;67.33;100612.16;5012933;28;20453;-53
2022/07/07 09:56:41;;;;;;;0.40;0.20;;;;;;;23.20;67.31;100615.00;4999399;28;21006;-52
2022/07/07 09:59:12;;;;;;;0.40;0.20;;;;;;;23.49;67.32;100628.19;5012690;28;20449;-53
2022/07/07 10:01:39;;;;;;;0.40;0.27;;;;;;;;;;5011591;28;20452;-53
2022/07/07 10:04:10;;;;;;;0.40;0.20;;;;;;;23.50;66.31;100638.06;5001106;28;20448;-53
2022/07/07 10:06:39;;;;;;;0.40;0.20;;;;;;;22.73;69.19;100673.59;5010443;28;20566;-52
2022/07/07 10:09:08;;;;;;;0.40;0.20;;;;;;;21.77;78.70;100690.38;5002343;28;20502;-52
2022/07/07 10:11:36;;;;;;;0.40;0.20;;;;;;;20.95;84.54;100697.59;5012659;28;20469;-52
2022/07/07 10:14:09;;;;;;;0.40;0.20;;;;;;;20.60;88.58;100704.44;5002709;28;20453;-50
2022/07/07 10:16:36;;;;;;;0.40;0.30;;;;;;;20.70;89.71;100701.06;5010564;28;20468;-50
2022/07/07 10:19:03;;;;;;;0.40;0.20;;;;;;;20.74;90.96;100719.75;5012621;28;20495;-50
2022/07/07 10:21:30;;;;;;;0.40;0.20;;;;;;;20.96;90.41;100718.25;4999292;28;20536;-50
2022/07/07 10:24:05;;;;;;;0.40;0.20;;;;;;;21.03;88.24;100720.59;5012629;28;20448;-50
2022/07/07 10:26:39;;;;;;;0.40;0.27;;;;;;;20.64;89.99;100720.34;5006370;28;20662;-51
2022/07/07 10:29:08;;;;;;;0.40;0.20;;;;;;;20.70;91.44;100729.91;5006439;28;20504;-52
2022/07/07 10:31:36;;;;;;;0.40;0.20;;;;;;;20.52;90.80;100722.94;5012444;28;20449;-52
2022/07/07 10:34:11;;;;;;;0.40;0.20;;;;;;;20.46;94.10;100721.50;5002677;28;20498;-52
2022/07/07 10:36:50;;;;;;;0.40;0.23;;;;;;;20.42;93.34;100719.94;5003195;28;20488;-51
2022/07/07 10:39:20;;;;;;;0.40;0.20;;;;;;;20.48;94.03;100718.72;5010245;28;20440;-51
2022/07/07 10:41:59;;;;;;;0.40;0.20;;;;;;;20.89;93.31;100711.53;5012572;28;20449;-52
2022/07/07 10:44:27;;;;;;;0.40;0.20;;;;;;;20.89;93.39;100724.19;5006140;28;20966;-51
2022/07/07 10:47:18;;;;;;;0.40;0.20;;;;;;;20.76;92.22;100718.69;5006845;28;20486;-52
2022/07/07 10:49:47;;;;;;;0.40;0.20;;;;;;;20.93;91.12;100721.16;4995704;28;20475;-52
2022/07/07 10:52:22;;;;;;;0.40;0.20;;;;;;;21.07;91.81;100722.97;5014044;28;20449;-51
2022/07/07 10:55:00;;;;;;;0.40;0.20;;;;;;;21.19;90.45;100726.72;5015980;28;20452;-51
2022/07/07 10:57:48;;;;;;;0.40;0.20;;;;;;;21.45;87.50;100731.31;5009087;28;20884;-50
2022/07/07 11:00:25;;;;;;;0.40;0.20;;;;;;;21.85;85.52;100729.47;5012433;28;20535;-50
2022/07/07 11:03:09;;;;;;;0.40;0.20;;;;;;;21.96;85.64;100733.31;5015822;28;20457;-52
2022/07/07 11:05:36;;;;;;;0.40;0.20;;;;;;;21.72;83.82;100733.13;5014331;28;20449;-51
2022/07/07 11:08:06;;;;;;;0.40;0.20;;;;;;;21.49;82.66;100740.06;5002203;28;20868;-51
2022/07/07 11:10:38;;;;;;;0.40;0.20;;;;;;;21.40;80.94;100754.25;5008456;28;20495;-51
2022/07/07 11:13:17;;;;;;;0.40;0.20;;;;;;;21.40;82.20;100755.09;5010853;28;20540;-51
2022/07/07 11:15:45;;;;;;;0.40;0.30;;;;;;;21.25;79.48;100756.97;5015321;28;20843;-51
2022/07/07 11:18:18;;;;;;;0.40;0.20;;;;;;;21.02;80.05;100759.41;5002220;28;20455;-51
2022/07/07 11:20:50;;;;;;;0.40;0.20;;;;;;;21.13;78.98;100755.03;5015442;28;20831;-50
2022/07/07 11:23:17;;;;;;;0.40;0.20;;;;;;;21.12;79.78;100758.72;5009858;28;20460;-51
2022/07/07 11:25:44;;;;;;;0.40;0.20;;;;;;;20.94;78.07;100762.59;5006795;28;20478;-51
2022/07/07 11:28:11;;;;;;;0.40;0.20;;;;;;;21.27;78.13;100755.03;5015211;28;20836;-51
2022/07/07 11:30:41;;;;;;;0.40;0.20;;;;;;;21.64;76.78;100759.81;5001826;28;20950;-51
2022/07/07 11:33:10;;;;;;;0.40;0.20;;;;;;;22.02;75.77;100773.47;5015174;28;20457;-51
2022/07/07 11:35:40;;;;;;;0.40;0.20;;;;;;;22.13;74.61;100766.38;5015088;28;20455;-52